Time;durP1;ratioP1;P1;durP2;ratioP2;P2;SDS_P1;SDS_P2;PMS_P1;PMS_P2;Temp;Humidity;BMP_temperature;BMP_pressure;BME280_temperature;BME280_humidity;BME280_pressure;Samples;Min_cycle;Max_cycle;Signal;HPM_P1;HPM_P2
2022/04/04 00:00:57;;;;;;;10.80;4.45;;;;;;;;;;5118400;28;20314;-74
2022/04/04 00:03:23;;;;;;;15.55;4.18;;;;;;;;;;5083282;28;20047;-74
2022/04/04 00:05:49;;;;;;;13.13;3.72;;;;;;;;;;5100231;28;20155;-74
2022/04/04 00:08:15;;;;;;;11.90;3.05;;;;;;;;;;5100534;28;20019;-74
2022/04/04 00:10:41;;;;;;;12.05;2.78;;;;;;;;;;5118457;28;20126;-73
2022/04/04 00:13:06;;;;;;;11.70;4.38;;;;;;;;;;5117940;28;20432;-74
2022/04/04 00:15:32;;;;;;;17.48;4.50;;;;;;;;;;5117619;28;20032;-74
2022/04/04 00:18:04;;;;;;;15.43;3.80;;;;;;;;;;5117633;28;20019;-74
2022/04/04 00:20:30;;;;;;;18.25;4.38;;;;;;;;;;5118220;28;20050;-74
2022/04/04 00:22:56;;;;;;;13.45;4.03;;;;;;;;;;5099919;28;20043;-74
2022/04/04 00:25:22;;;;;;;8.98;3.72;;;;;;;;;;5118112;28;20031;-73
2022/04/04 00:27:50;;;;;;;16.83;3.72;;;;;;;;;;5117634;28;20035;-74
2022/04/04 00:30:16;;;;;;;10.95;3.65;;;;;;;;;;5100077;28;20452;-74
2022/04/04 00:32:43;;;;;;;17.30;5.15;;;;;;;;;;5083251;28;20023;-74
2022/04/04 00:35:09;;;;;;;14.25;3.65;;;;;;;;;;5172085;22;20043;-74
2022/04/04 00:37:37;;;;;;;13.60;5.30;;;;;;;;;;5118263;28;20106;-74
2022/04/04 00:40:07;;;;;;;22.85;5.32;;;;;;;;;;5117818;28;20016;-74
2022/04/04 00:42:33;;;;;;;8.57;5.00;;;;;;;;;;5100280;28;20026;-73
2022/04/04 00:44:59;;;;;;;13.93;4.88;;;;;;;;;;5098890;28;20245;-74
2022/04/04 00:47:25;;;;;;;18.67;6.97;;;;;;;;;;5117716;28;20024;-74
2022/04/04 00:49:51;;;;;;;16.75;4.50;;;;;;;;;;5117179;28;20112;-74
2022/04/04 00:52:18;;;;;;;14.68;4.63;;;;;;;;;;5099744;28;20430;-73
2022/04/04 00:54:45;;;;;;;28.40;6.03;;;;;;;;;;5099501;28;20031;-73
2022/04/04 00:57:11;;;;;;;15.15;5.95;;;;;;;;;;5099590;28;20027;-73
2022/04/04 00:59:37;;;;;;;26.00;6.30;;;;;;;;;;5099086;28;20016;-74
2022/04/04 01:02:04;;;;;;;38.95;6.50;;;;;;;;;;5100426;28;20027;-73
2022/04/04 01:04:30;;;;;;;5.93;3.00;;;;;;;;;;5083310;28;20023;-73
2022/04/04 01:06:58;;;;;;;21.52;4.22;;;;;;;;;;5082996;28;20343;-74
2022/04/04 01:09:24;;;;;;;16.02;4.57;;;;;;;;;;5083733;28;20356;-73
2022/04/04 01:12:12;;;;;;;22.08;4.88;;;;;;;;;;5118067;28;20023;-73
2022/04/04 01:14:38;;;;;;;14.57;4.90;;;;;;;;;;5117615;28;20034;-72
2022/04/04 01:17:05;;;;;;;24.70;6.30;;;;;;;;;;5117013;28;20020;-73
2022/04/04 01:19:31;;;;;;;15.70;6.53;;;;;;;;;;5117692;28;20310;-73
2022/04/04 01:21:57;;;;;;;21.67;7.13;;;;;;;;;;5110833;28;20036;-73
2022/04/04 01:24:24;;;;;;;19.52;6.53;;;;;;;;;;5119732;28;20019;-72
2022/04/04 01:26:51;;;;;;;29.67;7.35;;;;;;;;;;5101619;28;20023;-73
2022/04/04 01:29:18;;;;;;;23.77;6.30;;;;;;;;;;5119142;28;20020;-74
2022/04/04 01:31:44;;;;;;;19.25;7.97;;;;;;;;;;5084470;28;20015;-73
2022/04/04 01:34:10;;;;;;;23.33;6.90;;;;;;;;;;5119033;28;20034;-73
2022/04/04 01:36:36;;;;;;;22.80;6.65;;;;;;;;;;5102025;28;20030;-74
2022/04/04 01:39:03;;;;;;;31.48;8.35;;;;;;;;;;5119980;28;20015;-73
2022/04/04 01:41:29;;;;;;;19.70;5.80;;;;;;;;;;5101559;28;20463;-73
2022/04/04 01:43:55;;;;;;;22.40;6.13;;;;;;;;;;5119135;28;20436;-74
2022/04/04 01:46:24;;;;;;;21.58;7.38;;;;;;;;;;5119830;28;20103;-73
2022/04/04 01:48:50;;;;;;;23.88;8.88;;;;;;;;;;5119821;28;20479;-74
2022/04/04 01:51:17;;;;;;;24.90;7.03;;;;;;;;;;5101954;28;20016;-74
2022/04/04 01:53:43;;;;;;;15.65;7.40;;;;;;;;;;5101804;28;20030;-74
2022/04/04 01:56:11;;;;;;;26.75;6.68;;;;;;;;;;5102162;28;20077;-74
2022/04/04 01:58:37;;;;;;;22.77;6.93;;;;;;;;;;5102499;28;20019;-74
2022/04/04 02:01:12;;;;;;;40.55;7.22;;;;;;;;;;5120020;28;20020;-74
2022/04/04 02:03:38;;;;;;;24.00;6.07;;;;;;;;;;5120949;28;20020;-73
2022/04/04 02:06:04;;;;;;;17.20;7.15;;;;;;;;;;5102927;28;20028;-73
2022/04/04 02:08:31;;;;;;;17.65;6.18;;;;;;;;;;5119687;28;20008;-73
2022/04/04 02:10:58;;;;;;;25.52;7.18;;;;;;;;;;5102523;28;20020;-74
2022/04/04 02:13:25;;;;;;;32.35;12.10;;;;;;;;;;5085426;28;20023;-74
2022/04/04 02:15:52;;;;;;;30.88;7.00;;;;;;;;;;5119638;28;20042;-75
2022/04/04 02:18:19;;;;;;;18.80;6.53;;;;;;;;;;5120098;28;20094;-74
2022/04/04 02:20:45;;;;;;;29.35;8.38;;;;;;;;;;5102036;28;20137;-74
2022/04/04 02:23:12;;;;;;;24.70;6.28;;;;;;;;;;5101936;28;20031;-73
2022/04/04 02:25:38;;;;;;;28.85;8.77;;;;;;;;;;5085366;28;20022;-76
2022/04/04 02:28:04;;;;;;;61.58;11.15;;;;;;;;;;5102571;28;20026;-74
2022/04/04 02:30:30;;;;;;;23.83;8.30;;;;;;;;;;5096035;28;20047;-74
2022/04/04 02:32:56;;;;;;;22.48;8.20;;;;;;;;;;5115321;28;20007;-74
2022/04/04 02:35:22;;;;;;;29.17;9.52;;;;;;;;;;5103460;28;20078;-77
2022/04/04 02:37:49;;;;;;;26.27;9.50;;;;;;;;;;5101527;28;20020;-75
2022/04/04 02:40:15;;;;;;;26.35;9.43;;;;;;;;;;5084673;28;20019;-74
2022/04/04 02:42:41;;;;;;;23.77;8.00;;;;;;;;;;5083583;28;20041;-74
2022/04/04 02:45:09;;;;;;;32.70;8.00;;;;;;;;;;5117679;28;20020;-73
2022/04/04 02:47:36;;;;;;;23.85;7.78;;;;;;;;;;5117096;28;20405;-74
2022/04/04 02:50:04;;;;;;;23.25;7.82;;;;;;;;;;5098531;28;20015;-74
2022/04/04 02:52:30;;;;;;;23.38;11.30;;;;;;;;;;5101547;28;20123;-73
2022/04/04 02:54:56;;;;;;;36.63;13.00;;;;;;;;;;5101584;28;20067;-73
2022/04/04 02:57:23;;;;;;;33.70;9.25;;;;;;;;;;5118635;28;20061;-73
2022/04/04 02:59:50;;;;;;;27.02;9.77;;;;;;;;;;5098546;28;20019;-73
2022/04/04 03:02:16;;;;;;;23.85;7.65;;;;;;;;;;5097994;28;20020;-73
2022/04/04 03:04:42;;;;;;;14.00;7.30;;;;;;;;;;5081431;28;20034;-73
2022/04/04 03:07:09;;;;;;;20.58;8.70;;;;;;;;;;5116191;28;20337;-73
2022/04/04 03:09:35;;;;;;;15.80;6.95;;;;;;;;;;5081195;28;20019;-73
2022/04/04 03:12:02;;;;;;;27.67;7.63;;;;;;;;;;5081470;28;20306;-75
2022/04/04 03:14:28;;;;;;;34.72;9.40;;;;;;;;;;5098951;28;20030;-75
2022/04/04 03:16:55;;;;;;;23.30;7.00;;;;;;;;;;5098831;28;20020;-76
2022/04/04 03:19:22;;;;;;;18.30;7.20;;;;;;;;;;5116857;28;20455;-75
2022/04/04 03:21:48;;;;;;;38.53;17.20;;;;;;;;;;5115816;28;20022;-72
2022/04/04 03:24:14;;;;;;;26.80;9.55;;;;;;;;;;5115761;28;20015;-73
2022/04/04 03:26:40;;;;;;;29.90;9.32;;;;;;;;;;5098801;28;20145;-74
2022/04/04 03:29:06;;;;;;;31.67;7.40;;;;;;;;;;5099105;28;20500;-73
2022/04/04 03:31:32;;;;;;;22.23;6.70;;;;;;;;;;5117369;28;20025;-75
2022/04/04 03:33:59;;;;;;;25.23;7.80;;;;;;;;;;5116686;28;20424;-74
2022/04/04 03:36:25;;;;;;;29.98;6.72;;;;;;;;;;5098339;28;20085;-74
2022/04/04 03:38:51;;;;;;;20.75;6.15;;;;;;;;;;5117072;28;20019;-74
2022/04/04 03:41:17;;;;;;;24.85;6.63;;;;;;;;;;5084498;28;20306;-74
2022/04/04 03:43:43;;;;;;;26.05;9.18;;;;;;;;;;5107714;28;20068;-72
2022/04/04 03:46:09;;;;;;;30.15;9.77;;;;;;;;;;5098565;28;20065;-73
2022/04/04 03:48:35;;;;;;;24.90;7.00;;;;;;;;;;5116280;28;20035;-75
2022/04/04 03:51:01;;;;;;;24.65;6.93;;;;;;;;;;5116118;28;20033;-73
2022/04/04 03:53:27;;;;;;;33.20;8.50;;;;;;;;;;5098383;28;20435;-73
2022/04/04 03:55:53;;;;;;;20.35;7.00;;;;;;;;;;5116059;28;20039;-72
2022/04/04 03:58:19;;;;;;;13.95;5.38;;;;;;;;;;5117183;28;20061;-72
2022/04/04 04:00:45;;;;;;;16.73;6.22;;;;;;;;;;5115162;28;20054;-74
2022/04/04 04:03:11;;;;;;;15.05;7.47;;;;;;;;;;5096873;28;20038;-73
2022/04/04 04:05:37;;;;;;;26.63;9.48;;;;;;;;;;5116123;28;20442;-73
2022/04/04 04:08:04;;;;;;;27.83;9.13;;;;;;;;;;5081485;28;20047;-73
2022/04/04 04:10:30;;;;;;;42.33;9.90;;;;;;;;;;5116014;28;20104;-72
2022/04/04 04:12:58;;;;;;;24.20;8.88;;;;;;;;;;5115987;28;20362;-74
2022/04/04 04:15:25;;;;;;;18.58;7.93;;;;;;;;;;5096680;28;20028;-73
2022/04/04 04:17:52;;;;;;;27.63;8.02;;;;;;;;;;5096442;28;20320;-72
2022/04/04 04:20:19;;;;;;;20.77;8.05;;;;;;;;;;5078405;28;20069;-74
2022/04/04 04:22:56;;;;;;;25.13;8.75;;;;;;;;;;5093450;28;20421;-74
2022/04/04 04:25:23;;;;;;;31.13;11.68;;;;;;;;;;5093274;28;20020;-73
2022/04/04 04:27:50;;;;;;;65.93;11.50;;;;;;;;;;5094497;28;20049;-74
2022/04/04 04:30:16;;;;;;;26.38;7.88;;;;;;;;;;5093165;28;20455;-74
2022/04/04 04:32:43;;;;;;;31.73;8.60;;;;;;;;;;5094654;28;20023;-74
2022/04/04 04:35:11;;;;;;;19.15;7.03;;;;;;;;;;5095686;28;20107;-74
2022/04/04 04:37:37;;;;;;;35.33;9.82;;;;;;;;;;5076953;28;20127;-72
2022/04/04 04:40:04;;;;;;;33.10;9.93;;;;;;;;;;5093873;28;20291;-73
2022/04/04 04:42:32;;;;;;;28.40;9.32;;;;;;;;;;5095385;28;20019;-73
2022/04/04 04:44:59;;;;;;;26.00;9.20;;;;;;;;;;5112316;28;20460;-76
2022/04/04 04:47:25;;;;;;;30.45;12.52;;;;;;;;;;5096039;28;20073;-76
2022/04/04 04:49:51;;;;;;;37.83;9.38;;;;;;;;;;5114923;28;20026;-76
2022/04/04 04:52:17;;;;;;;39.50;10.85;;;;;;;;;;5103481;22;20146;-75
2022/04/04 04:54:44;;;;;;;27.08;11.05;;;;;;;;;;5129053;22;20032;-77
2022/04/04 04:57:10;;;;;;;30.52;8.80;;;;;;;;;;5116388;28;20079;-76
2022/04/04 04:59:36;;;;;;;34.30;11.02;;;;;;;;;;5113534;28;20007;-74
2022/04/04 05:02:03;;;;;;;31.17;10.93;;;;;;;;;;5130693;28;20110;-75
2022/04/04 05:04:29;;;;;;;29.17;11.95;;;;;;;;;;5116455;28;20028;-75
2022/04/04 05:06:55;;;;;;;36.22;15.15;;;;;;;;;;5117372;28;20019;-75
2022/04/04 05:09:22;;;;;;;48.72;13.68;;;;;;;;;;5107632;22;20135;-75
2022/04/04 05:11:48;;;;;;;41.63;11.60;;;;;;;;;;5118136;28;20065;-74
2022/04/04 05:14:17;;;;;;;34.20;9.15;;;;;;;;;;5118937;28;20031;-75
2022/04/04 05:16:43;;;;;;;29.38;12.20;;;;;;;;;;5119040;28;20108;-74
2022/04/04 05:19:13;;;;;;;27.33;10.52;;;;;;;;;;5119369;27;20015;-76
2022/04/04 05:21:40;;;;;;;40.72;11.05;;;;;;;;;;5100809;28;20016;-74
2022/04/04 05:24:07;;;;;;;41.85;12.57;;;;;;;;;;5117412;28;20092;-77
2022/04/04 05:26:33;;;;;;;36.08;12.45;;;;;;;;;;5105356;28;20091;-77
2022/04/04 05:29:00;;;;;;;64.93;17.73;;;;;;;;;;5117664;28;20047;-75
2022/04/04 05:31:35;;;;;;;25.17;11.20;;;;;;;;;;5100115;28;20015;-74
2022/04/04 05:34:04;;;;;;;27.92;12.18;;;;;;;;;;5117604;28;20024;-74
2022/04/04 05:36:33;;;;;;;46.92;15.73;;;;;;;;;;5098588;28;20027;-74
2022/04/04 05:39:05;;;;;;;27.17;10.45;;;;;;;;;;5098849;28;20020;-74
2022/04/04 05:41:36;;;;;;;37.67;13.52;;;;;;;;;;5098604;28;20020;-74
2022/04/04 05:44:03;;;;;;;36.65;14.07;;;;;;;;;;5114981;28;20042;-73
2022/04/04 05:46:34;;;;;;;31.00;11.30;;;;;;;;;;5115169;28;20024;-74
2022/04/04 05:49:05;;;;;;;46.22;15.88;;;;;;;;;;5098618;28;20027;-74
2022/04/04 05:51:38;;;;;;;43.65;13.20;;;;;;;;;;5116153;28;20210;-74
2022/04/04 05:54:06;;;;;;;45.17;14.00;;;;;;;;;;5099756;28;20114;-73
2022/04/04 05:56:35;;;;;;;35.22;12.45;;;;;;;;;;5097530;28;20078;-74
2022/04/04 05:59:11;;;;;;;38.33;15.63;;;;;;;;;;5115040;28;20027;-73
2022/04/04 06:01:41;;;;;;;34.78;14.15;;;;;;;;;;5110083;22;20304;-73
2022/04/04 06:04:10;;;;;;;31.77;11.05;;;;;;;;;;5103579;27;20320;-73
2022/04/04 06:06:38;;;;;;;48.33;15.07;;;;;;;;;;5103326;27;20122;-73
2022/04/04 06:09:08;;;;;;;35.38;10.15;;;;;;;;;;5127598;22;20105;-73
2022/04/04 06:11:34;;;;;;;;;;;;;;;;;;5167351;27;20026;-74
2022/04/04 06:14:06;;;;;;;30.40;11.32;;;;;;;;;;5132963;27;19907;-73
2022/04/04 06:16:34;;;;;;;85.25;19.27;;;;;;;;;;5115171;22;20184;-73
2022/04/04 06:19:05;;;;;;;37.00;12.60;;;;;;;;;;5102022;27;20044;-74
2022/04/04 06:21:33;;;;;;;28.92;11.25;;;;;;;;;;5103496;27;20027;-74
2022/04/04 06:24:02;;;;;;;40.43;12.40;;;;;;;;;;5102637;27;20030;-74
2022/04/04 06:26:31;;;;;;;35.28;10.80;;;;;;;;;;5103476;27;20015;-73
2022/04/04 06:29:01;;;;;;;34.97;10.07;;;;;;;;;;5102680;27;20030;-74
2022/04/04 06:31:28;;;;;;;33.15;11.07;;;;;;;;;;5102949;27;20378;-74
2022/04/04 06:33:56;;;;;;;34.22;11.93;;;;;;;;;;5103295;27;20479;-74
2022/04/04 06:36:26;;;;;;;41.60;13.70;;;;;;;;;;5139891;22;20135;-74
2022/04/04 06:38:56;;;;;;;23.05;10.77;;;;;;;;;;5110251;22;20039;-72
2022/04/04 06:41:22;;;;;;;112.63;20.35;;;;;;;;;;5116408;28;20500;-74
2022/04/04 06:43:50;;;;;;;41.17;9.90;;;;;;;;;;5120570;28;20039;-72
2022/04/04 06:46:17;;;;;;;37.72;11.75;;;;;;;;;;5118022;28;20027;-71
2022/04/04 06:48:49;;;;;;;50.58;10.05;;;;;;;;;;5117678;28;20019;-72
2022/04/04 06:51:17;;;;;;;27.60;9.02;;;;;;;;;;5098262;28;20036;-73
2022/04/04 06:53:45;;;;;;;26.25;9.25;;;;;;;;;;5116274;28;20027;-72
2022/04/04 06:56:13;;;;;;;31.40;11.48;;;;;;;;;;5097716;28;20028;-72
2022/04/04 06:58:42;;;;;;;27.65;9.15;;;;;;;;;;5098657;28;20019;-73
2022/04/04 07:01:10;;;;;;;36.90;10.02;;;;;;;;;;5098645;28;20053;-72
2022/04/04 07:03:38;;;;;;;47.90;9.00;;;;;;;;;;5098652;28;20068;-73
2022/04/04 07:06:10;;;;;;;39.95;11.15;;;;;;;;;;5099539;28;20022;-73
2022/04/04 07:08:38;;;;;;;53.13;10.88;;;;;;;;;;5115890;28;20058;-72
2022/04/04 07:11:10;;;;;;;30.92;10.40;;;;;;;;;;5114827;28;20091;-72
2022/04/04 07:13:37;;;;;;;28.50;8.70;;;;;;;;;;5117147;28;20110;-72
2022/04/04 07:16:06;;;;;;;36.92;9.63;;;;;;;;;;5099486;28;20284;-72
2022/04/04 07:18:33;;;;;;;40.70;11.02;;;;;;;;;;5117490;28;20057;-72
2022/04/04 07:20:59;;;;;;;35.58;10.55;;;;;;;;;;5117899;28;20030;-72
2022/04/04 07:23:28;;;;;;;38.47;9.38;;;;;;;;;;5099805;28;20156;-73
2022/04/04 07:25:58;;;;;;;72.40;12.98;;;;;;;;;;5105248;28;20045;-72
2022/04/04 07:28:27;;;;;;;29.02;9.00;;;;;;;;;;5114828;28;20341;-72
2022/04/04 07:30:57;;;;;;;39.13;8.43;;;;;;;;;;5098373;28;20012;-73
2022/04/04 07:33:25;;;;;;;40.40;7.95;;;;;;;;;;5098254;28;20022;-71
2022/04/04 07:35:53;;;;;;;23.63;7.07;;;;;;;;;;5114851;28;20056;-72
2022/04/04 07:38:21;;;;;;;34.70;8.15;;;;;;;;;;5098717;28;20126;-72
2022/04/04 07:40:48;;;;;;;32.05;7.53;;;;;;;;;;5097914;28;20019;-72
2022/04/04 07:43:15;;;;;;;38.47;7.93;;;;;;;;;;5114857;28;20015;-72
2022/04/04 07:45:41;;;;;;;33.95;8.43;;;;;;;;;;5115689;28;20047;-72
2022/04/04 07:48:10;;;;;;;22.80;7.50;;;;;;;;;;5098602;28;20030;-72
2022/04/04 07:50:41;;;;;;;33.10;6.75;;;;;;;;;;5098629;28;20563;-72
2022/04/04 07:53:08;;;;;;;25.42;6.75;;;;;;;;;;5114830;28;20441;-72
2022/04/04 07:55:36;;;;;;;43.03;7.32;;;;;;;;;;5114407;28;20031;-72
2022/04/04 07:58:16;;;;;;;30.98;7.75;;;;;;;;;;5114428;28;20020;-74
2022/04/04 08:00:42;;;;;;;25.47;7.17;;;;;;;;;;5097643;28;20019;-73
2022/04/04 08:03:09;;;;;;;17.05;5.85;;;;;;;;;;5115353;28;20268;-73
2022/04/04 08:05:36;;;;;;;28.80;8.70;;;;;;;;;;5115441;28;20099;-72
2022/04/04 08:08:03;;;;;;;32.25;8.32;;;;;;;;;;5113716;28;20373;-72
2022/04/04 08:10:29;;;;;;;21.30;7.90;;;;;;;;;;5114589;28;20324;-72
2022/04/04 08:12:55;;;;;;;32.33;9.60;;;;;;;;;;5114465;28;20027;-73
2022/04/04 08:15:22;;;;;;;21.40;6.45;;;;;;;;;;5097550;28;20106;-73
2022/04/04 08:17:48;;;;;;;22.73;6.82;;;;;;;;;;5114261;28;20340;-73
2022/04/04 08:20:17;;;;;;;16.50;6.68;;;;;;;;;;5114073;28;20310;-73
2022/04/04 08:22:44;;;;;;;;;;;;;;;;;;5097535;28;20020;-72
2022/04/04 08:25:11;;;;;;;24.95;8.10;;;;;;;;;;5114519;28;19904;-72
2022/04/04 08:27:38;;;;;;;27.25;8.15;;;;;;;;;;5096393;28;20211;-73
2022/04/04 08:30:05;;;;;;;34.03;8.82;;;;;;;;;;5115679;28;20034;-73
2022/04/04 08:32:38;;;;;;;29.17;6.72;;;;;;;;;;5098527;28;20496;-73
2022/04/04 08:35:09;;;;;;;18.67;7.40;;;;;;;;;;5117308;28;20065;-72
2022/04/04 08:37:41;;;;;;;46.95;9.02;;;;;;;;;;5099345;28;20020;-73
2022/04/04 08:40:12;;;;;;;27.33;7.43;;;;;;;;;;5106949;28;20079;-72
2022/04/04 08:42:42;;;;;;;32.13;8.90;;;;;;;;;;5107540;28;20028;-72
2022/04/04 08:45:09;;;;;;;29.13;6.15;;;;;;;;;;5116228;28;20114;-72
2022/04/04 08:47:38;;;;;;;36.70;8.63;;;;;;;;;;5098415;28;20374;-73
2022/04/04 08:50:04;;;;;;;29.88;9.52;;;;;;;;;;5115622;28;20020;-73
2022/04/04 08:52:35;;;;;;;32.30;8.38;;;;;;;;;;5098400;28;20144;-74
2022/04/04 08:55:05;;;;;;;16.80;6.80;;;;;;;;;;5098150;28;20043;-72
2022/04/04 08:57:33;;;;;;;31.23;10.68;;;;;;;;;;5115313;28;20075;-72
2022/04/04 09:00:02;;;;;;;15.57;6.80;;;;;;;;;;5098312;28;20023;-74
2022/04/04 09:02:28;;;;;;;60.25;9.73;;;;;;;;;;5114412;28;20347;-73
2022/04/04 09:05:01;;;;;;;26.58;6.95;;;;;;;;;;5114649;28;20027;-73
2022/04/04 09:07:27;;;;;;;38.20;7.63;;;;;;;;;;5115036;28;20091;-73
2022/04/04 09:09:53;;;;;;;23.45;7.90;;;;;;;;;;5115993;28;20016;-73
2022/04/04 09:12:21;;;;;;;41.38;9.40;;;;;;;;;;5116386;28;20020;-73
2022/04/04 09:14:53;;;;;;;18.55;6.78;;;;;;;;;;5098736;28;20051;-73
2022/04/04 09:17:21;;;;;;;36.65;9.02;;;;;;;;;;5098234;28;20024;-73
2022/04/04 09:19:48;;;;;;;32.00;7.15;;;;;;;;;;5098643;28;20118;-72
2022/04/04 09:22:16;;;;;;;27.67;9.77;;;;;;;;;;5117592;28;20072;-71
2022/04/04 09:24:46;;;;;;;43.92;10.85;;;;;;;;;;5099494;28;20051;-74
2022/04/04 09:27:16;;;;;;;25.75;8.38;;;;;;;;;;5098775;28;20043;-73
2022/04/04 09:29:46;;;;;;;109.00;12.73;;;;;;;;;;5118817;28;20026;-74
2022/04/04 09:32:14;;;;;;;40.55;11.95;;;;;;;;;;5116906;28;20046;-74
2022/04/04 09:35:08;;;;;;;34.10;9.60;;;;;;;;;;5117231;28;20024;-73
2022/04/04 09:37:38;;;;;;;20.40;7.82;;;;;;;;;;5116612;28;20031;-73
2022/04/04 09:40:06;;;;;;;25.53;8.03;;;;;;;;;;5099498;28;20023;-74
2022/04/04 09:42:32;;;;;;;24.33;7.05;;;;;;;;;;5099018;28;20267;-73
2022/04/04 09:44:59;;;;;;;33.05;10.30;;;;;;;;;;5117238;28;20118;-72
2022/04/04 09:47:44;;;;;;;38.70;7.10;;;;;;;;;;5106572;28;20027;-73
2022/04/04 09:50:10;;;;;;;28.10;8.73;;;;;;;;;;5103784;28;20051;-74
2022/04/04 09:52:57;;;;;;;25.05;7.88;;;;;;;;;;5120711;28;20027;-73
2022/04/04 09:55:32;;;;;;;23.30;7.13;;;;;;;;;;5119753;28;20027;-72
2022/04/04 09:58:00;;;;;;;33.85;9.05;;;;;;;;;;5121541;28;20024;-73
2022/04/04 10:00:35;;;;;;;22.33;7.57;;;;;;;;;;5120757;28;20167;-73
2022/04/04 10:03:05;;;;;;;32.20;7.72;;;;;;;;;;5103636;28;20038;-73
2022/04/04 10:05:31;;;;;;;31.30;11.82;;;;;;;;;;5124401;28;20030;-73
2022/04/04 10:07:58;;;;;;;26.33;8.07;;;;;;;;;;5111322;28;20024;-73
2022/04/04 10:10:26;;;;;;;33.97;10.65;;;;;;;;;;5120166;28;20049;-74
2022/04/04 10:12:55;;;;;;;40.22;10.07;;;;;;;;;;5119618;28;20019;-73
2022/04/04 10:15:23;;;;;;;24.83;8.25;;;;;;;;;;5102992;28;20031;-73
2022/04/04 10:17:50;;;;;;;36.95;7.43;;;;;;;;;;5118402;28;20020;-73
2022/04/04 10:20:17;;;;;;;24.73;7.70;;;;;;;;;;5102674;28;20019;-72
2022/04/04 10:22:47;;;;;;;31.05;10.07;;;;;;;;;;5119544;28;20047;-74
2022/04/04 10:25:15;;;;;;;33.45;9.45;;;;;;;;;;5120687;28;20416;-74
2022/04/04 10:27:46;;;;;;;34.78;8.85;;;;;;;;;;5102482;28;20024;-73
2022/04/04 10:30:12;;;;;;;;;;;;;;;;;;5120816;28;20313;-73
2022/04/04 10:32:48;;;;;;;22.40;6.28;;;;;;;;;;5119953;28;19966;-73
2022/04/04 10:35:18;;;;;;;24.88;5.85;;;;;;;;;;5119364;28;20391;-71
2022/04/04 10:37:44;;;;;;;28.35;6.20;;;;;;;;;;5120962;28;20057;-73
2022/04/04 10:40:19;;;;;;;20.45;6.10;;;;;;;;;;5104660;28;20024;-74
2022/04/04 10:42:46;;;;;;;22.40;6.10;;;;;;;;;;5119299;28;20102;-73
2022/04/04 10:45:13;;;;;;;17.70;6.70;;;;;;;;;;5119274;28;20027;-73
2022/04/04 10:47:44;;;;;;;22.83;6.25;;;;;;;;;;5101982;28;20110;-73
2022/04/04 10:50:15;;;;;;;19.30;5.90;;;;;;;;;;5120862;28;20106;-74
2022/04/04 10:52:42;;;;;;;27.55;5.68;;;;;;;;;;5118668;28;20405;-73
2022/04/04 10:55:30;;;;;;;27.35;7.45;;;;;;;;;;5118700;28;20028;-73
2022/04/04 10:58:00;;;;;;;25.95;6.53;;;;;;;;;;5121706;28;20102;-73
2022/04/04 11:00:52;;;;;;;30.75;7.40;;;;;;;;;;5102733;28;20412;-74
2022/04/04 11:03:28;;;;;;;20.98;6.28;;;;;;;;;;5102719;28;20031;-74
2022/04/04 11:09:04;;;;;;;23.90;7.65;;;;;;;;;;5125573;22;20015;-73
2022/04/04 11:11:40;;;;;;;12.38;6.10;;;;;;;;;;5120819;28;20080;-74
2022/04/04 11:14:07;;;;;;;31.42;7.65;;;;;;;;;;5120454;28;20023;-75
2022/04/04 11:16:59;;;;;;;33.50;10.10;;;;;;;;;;5118622;28;20036;-75
2022/04/04 11:19:28;;;;;;;28.83;8.50;;;;;;;;;;5111458;28;20036;-74
2022/04/04 11:21:54;;;;;;;36.30;9.77;;;;;;;;;;5102069;28;20015;-75
2022/04/04 11:24:21;;;;;;;31.90;8.68;;;;;;;;;;5120776;28;20046;-75
2022/04/04 11:26:47;;;;;;;30.42;8.43;;;;;;;;;;5129939;27;20035;-74
2022/04/04 11:29:19;;;;;;;29.92;8.23;;;;;;;;;;5104983;28;20023;-75
2022/04/04 11:31:48;;;;;;;45.55;10.15;;;;;;;;;;5118197;28;20020;-74
2022/04/04 11:34:14;;;;;;;24.30;7.95;;;;;;;;;;5118169;28;20027;-75
2022/04/04 11:36:41;;;;;;;31.85;9.02;;;;;;;;;;5118204;28;20039;-75
2022/04/04 11:39:08;;;;;;;35.85;10.85;;;;;;;;;;5101468;28;20022;-75
2022/04/04 11:41:46;;;;;;;30.92;7.90;;;;;;;;;;5101375;28;20026;-74
2022/04/04 11:44:25;;;;;;;38.95;9.30;;;;;;;;;;5117794;28;20082;-75
2022/04/04 11:47:02;;;;;;;74.78;15.95;;;;;;;;;;5101108;28;20015;-74
2022/04/04 11:49:34;;;;;;;39.28;9.10;;;;;;;;;;5117500;28;20016;-75
2022/04/04 11:52:04;;;;;;;30.05;10.13;;;;;;;;;;5119002;28;20215;-72
2022/04/04 11:54:42;;;;;;;48.97;13.35;;;;;;;;;;5117364;28;20020;-72
2022/04/04 11:57:09;;;;;;;34.28;11.38;;;;;;;;;;5100687;28;20046;-73
2022/04/04 11:59:36;;;;;;;33.42;9.65;;;;;;;;;;5118322;28;20011;-73
2022/04/04 12:02:08;;;;;;;19.88;10.80;;;;;;;;;;5120539;28;20034;-75
2022/04/04 12:04:35;;;;;;;28.88;9.77;;;;;;;;;;5120807;28;20023;-75
2022/04/04 12:07:17;;;;;;;34.00;10.25;;;;;;;;;;5116378;27;20438;-73
2022/04/04 12:09:46;;;;;;;31.67;9.07;;;;;;;;;;5116376;28;20032;-73
2022/04/04 12:12:13;;;;;;;35.67;9.55;;;;;;;;;;5116781;28;20020;-73
2022/04/04 12:14:40;;;;;;;24.50;8.98;;;;;;;;;;5116108;28;20028;-73
2022/04/04 12:17:07;;;;;;;50.08;11.00;;;;;;;;;;5109370;22;20127;-73
2022/04/04 12:19:44;;;;;;;31.80;10.85;;;;;;;;;;5119319;28;20011;-73
2022/04/04 12:24:55;;;;;;;38.42;10.98;;;;;;;;;;5137708;28;20053;-73
2022/04/04 12:27:22;;;;;;;71.75;11.10;;;;;;;;;;5135611;28;20024;-72
2022/04/04 12:29:49;;;;;;;56.08;11.77;;;;;;;;;;5119342;28;20066;-74
2022/04/04 12:32:17;;;;;;;47.00;11.32;;;;;;;;;;5135064;27;20023;-73
2022/04/04 12:34:59;;;;;;;41.95;10.80;;;;;;;;;;5135823;27;20057;-73
2022/04/04 12:37:42;;;;;;;155.57;23.40;;;;;;;;;;5136101;27;20020;-73
2022/04/04 12:40:23;;;;;;;52.72;10.55;;;;;;;;;;5137421;28;20016;-73
2022/04/04 12:42:49;;;;;;;;;;;;;;;;;;5138687;27;20434;-73
2022/04/04 12:45:20;;;;;;;30.52;12.18;;;;;;;;;;5138311;27;19954;-73
2022/04/04 12:47:56;;;;;;;33.97;9.93;;;;;;;;;;5136577;27;20127;-72
2022/04/04 12:50:23;;;;;;;35.08;10.80;;;;;;;;;;5119179;28;20019;-73
2022/04/04 12:53:08;;;;;;;61.30;15.90;;;;;;;;;;5144243;28;20076;-74
2022/04/04 12:55:35;;;;;;;32.35;11.75;;;;;;;;;;5138118;28;20019;-73
2022/04/04 12:58:20;;;;;;;57.92;17.23;;;;;;;;;;5136358;27;20051;-73
2022/04/04 13:00:47;;;;;;;46.80;16.45;;;;;;;;;;5134258;28;20072;-73
2022/04/04 13:03:19;;;;;;;61.65;15.10;;;;;;;;;;5136330;27;20019;-73
2022/04/04 13:05:46;;;;;;;45.78;14.50;;;;;;;;;;5093955;22;20059;-74
2022/04/04 13:08:26;;;;;;;34.38;13.55;;;;;;;;;;5073950;28;20130;-73
2022/04/04 13:11:02;;;;;;;43.85;13.23;;;;;;;;;;5057574;28;20430;-73
2022/04/04 13:13:28;;;;;;;43.08;13.82;;;;;;;;;;5092058;28;20017;-73
2022/04/04 13:15:55;;;;;;;44.85;14.50;;;;;;;;;;5123787;22;20460;-74
2022/04/04 13:18:21;;;;;;;31.98;9.70;;;;;;;;;;5089234;28;20020;-74
2022/04/04 13:20:49;;;;;;;41.13;11.07;;;;;;;;;;5103968;28;20027;-73
2022/04/04 13:23:16;;;;;;;32.35;9.55;;;;;;;;;;5102022;28;20020;-73
2022/04/04 13:25:44;;;;;;;49.25;11.32;;;;;;;;;;5101375;28;20357;-73
2022/04/04 13:28:11;;;;;;;28.48;11.30;;;;;;;;;;5102197;28;20039;-73
2022/04/04 13:30:41;;;;;;;49.05;12.35;;;;;;;;;;5086682;28;20020;-74
2022/04/04 13:33:07;;;;;;;;;;;;;;;;;;5102457;28;20078;-74
2022/04/04 13:35:34;;;;;;;42.00;12.90;;;;;;;;;;5103763;28;19917;-73
2022/04/04 13:38:00;;;;;;;39.38;11.90;;;;;;;;;;5090652;28;20016;-73
2022/04/04 13:40:30;;;;;;;47.28;15.38;;;;;;;;;;5107815;28;20024;-74
2022/04/04 13:42:57;;;;;;;35.47;13.73;;;;;;;;;;5100444;22;20032;-73
2022/04/04 13:45:24;;;;;;;60.67;14.93;;;;;;;;;;5085094;28;20144;-74
2022/04/04 13:50:16;;;;;;;40.42;16.38;;;;;;;;;;5099186;22;20102;-73
2022/04/04 13:52:43;;;;;;;69.70;18.88;;;;;;;;;;5071320;28;20017;-74
2022/04/04 13:55:10;;;;;;;47.17;18.58;;;;;;;;;;5070215;28;20116;-74
2022/04/04 13:57:36;;;;;;;49.38;17.65;;;;;;;;;;5056017;28;20017;-74
2022/04/04 14:00:04;;;;;;;40.60;14.88;;;;;;;;;;5071282;28;20059;-74
2022/04/04 14:02:31;;;;;;;39.65;15.50;;;;;;;;;;5071580;28;20044;-74
2022/04/04 14:04:58;;;;;;;42.83;14.93;;;;;;;;;;5053894;28;20024;-74
2022/04/04 14:07:24;;;;;;;37.20;13.32;;;;;;;;;;5054446;28;20040;-74
2022/04/04 14:09:54;;;;;;;38.38;13.93;;;;;;;;;;5085875;28;20016;-74
2022/04/04 14:12:23;;;;;;;31.95;15.15;;;;;;;;;;5053471;28;20024;-74
2022/04/04 14:14:52;;;;;;;39.63;13.68;;;;;;;;;;5088472;28;20399;-74
2022/04/04 14:17:20;;;;;;;34.65;13.43;;;;;;;;;;5050362;28;20021;-74
2022/04/04 14:19:48;;;;;;;42.00;16.83;;;;;;;;;;5069125;28;20027;-74
2022/04/04 14:22:16;;;;;;;42.72;16.73;;;;;;;;;;5065805;28;20027;-74
2022/04/04 14:24:42;;;;;;;50.30;17.40;;;;;;;;;;5067606;28;20021;-74
2022/04/04 14:27:08;;;;;;;40.97;17.00;;;;;;;;;;5065158;28;20032;-74
2022/04/04 14:29:34;;;;;;;37.78;15.25;;;;;;;;;;5064453;22;20090;-74
2022/04/04 14:32:00;;;;;;;37.25;16.23;;;;;;;;;;5061508;28;20039;-74
2022/04/04 14:34:26;;;;;;;41.92;14.63;;;;;;;;;;5043449;28;20028;-73
2022/04/04 14:36:53;;;;;;;47.13;16.25;;;;;;;;;;5059528;28;20023;-74
2022/04/04 14:39:19;;;;;;;47.17;16.85;;;;;;;;;;5059945;28;20351;-74
2022/04/04 14:41:45;;;;;;;46.22;16.42;;;;;;;;;;5059320;28;20021;-74